sensor_id;sensor_type;location;lat;lon;timestamp;P1;durP1;ratioP1;P2;durP2;ratioP2
781;SDS011;374;52.568;13.402;2022-11-14T00:00:41;56.27;;;31.93;;
781;SDS011;374;52.568;13.402;2022-11-14T00:03:07;55.33;;;34.10;;
781;SDS011;374;52.568;13.402;2022-11-14T00:05:41;51.97;;;31.67;;
781;SDS011;374;52.568;13.402;2022-11-14T00:08:21;58.17;;;33.60;;
781;SDS011;374;52.568;13.402;2022-11-14T00:10:49;51.20;;;31.93;;
781;SDS011;374;52.568;13.402;2022-11-14T00:13:16;64.07;;;36.40;;
781;SDS011;374;52.568;13.402;2022-11-14T00:15:43;51.93;;;30.70;;
781;SDS011;374;52.568;13.402;2022-11-14T00:18:09;57.33;;;32.80;;
781;SDS011;374;52.568;13.402;2022-11-14T00:20:35;53.60;;;31.47;;
781;SDS011;374;52.568;13.402;2022-11-14T00:23:01;54.13;;;33.20;;
781;SDS011;374;52.568;13.402;2022-11-14T00:25:26;56.23;;;33.70;;
781;SDS011;374;52.568;13.402;2022-11-14T00:27:52;51.80;;;31.37;;
781;SDS011;374;52.568;13.402;2022-11-14T00:30:20;56.17;;;33.77;;
781;SDS011;374;52.568;13.402;2022-11-14T00:32:45;56.37;;;33.40;;
781;SDS011;374;52.568;13.402;2022-11-14T00:35:11;52.93;;;34.10;;
781;SDS011;374;52.568;13.402;2022-11-14T00:37:36;61.87;;;35.87;;
781;SDS011;374;52.568;13.402;2022-11-14T00:40:02;56.17;;;34.67;;
781;SDS011;374;52.568;13.402;2022-11-14T00:42:28;59.13;;;34.97;;
781;SDS011;374;52.568;13.402;2022-11-14T00:44:53;51.13;;;33.17;;
781;SDS011;374;52.568;13.402;2022-11-14T00:47:19;63.60;;;36.00;;
781;SDS011;374;52.568;13.402;2022-11-14T00:49:44;52.03;;;35.57;;
781;SDS011;374;52.568;13.402;2022-11-14T00:52:10;58.20;;;33.90;;
781;SDS011;374;52.568;13.402;2022-11-14T00:54:35;54.57;;;36.40;;
781;SDS011;374;52.568;13.402;2022-11-14T00:57:01;55.73;;;34.60;;
781;SDS011;374;52.568;13.402;2022-11-14T00:59:29;61.83;;;36.13;;
781;SDS011;374;52.568;13.402;2022-11-14T01:01:54;56.50;;;34.43;;
781;SDS011;374;52.568;13.402;2022-11-14T01:04:20;57.63;;;35.13;;
781;SDS011;374;52.568;13.402;2022-11-14T01:06:45;61.60;;;34.87;;
781;SDS011;374;52.568;13.402;2022-11-14T01:09:11;57.73;;;34.20;;
781;SDS011;374;52.568;13.402;2022-11-14T01:11:36;57.50;;;35.63;;
781;SDS011;374;52.568;13.402;2022-11-14T01:14:04;59.73;;;33.83;;
781;SDS011;374;52.568;13.402;2022-11-14T01:16:30;60.13;;;35.70;;
781;SDS011;374;52.568;13.402;2022-11-14T01:18:56;58.70;;;33.50;;
781;SDS011;374;52.568;13.402;2022-11-14T01:21:21;56.50;;;33.70;;
781;SDS011;374;52.568;13.402;2022-11-14T01:23:47;60.87;;;36.63;;
781;SDS011;374;52.568;13.402;2022-11-14T01:26:13;68.27;;;38.80;;
781;SDS011;374;52.568;13.402;2022-11-14T01:28:39;59.83;;;34.97;;
781;SDS011;374;52.568;13.402;2022-11-14T01:33:39;64.30;;;36.03;;
781;SDS011;374;52.568;13.402;2022-11-14T01:36:05;62.03;;;35.60;;
781;SDS011;374;52.568;13.402;2022-11-14T01:38:31;60.90;;;35.57;;
781;SDS011;374;52.568;13.402;2022-11-14T01:40:57;62.47;;;35.30;;
781;SDS011;374;52.568;13.402;2022-11-14T01:43:23;57.33;;;34.43;;
781;SDS011;374;52.568;13.402;2022-11-14T01:45:52;64.27;;;34.60;;
781;SDS011;374;52.568;13.402;2022-11-14T01:48:23;61.20;;;34.77;;
781;SDS011;374;52.568;13.402;2022-11-14T01:50:57;62.53;;;35.30;;
781;SDS011;374;52.568;13.402;2022-11-14T01:53:27;58.20;;;34.50;;
781;SDS011;374;52.568;13.402;2022-11-14T01:55:54;60.70;;;38.77;;
781;SDS011;374;52.568;13.402;2022-11-14T01:58:23;60.20;;;36.20;;
781;SDS011;374;52.568;13.402;2022-11-14T02:00:49;66.07;;;37.10;;
781;SDS011;374;52.568;13.402;2022-11-14T02:03:15;65.00;;;36.27;;
781;SDS011;374;52.568;13.402;2022-11-14T02:05:41;60.70;;;36.10;;
781;SDS011;374;52.568;13.402;2022-11-14T02:08:10;74.87;;;38.30;;
781;SDS011;374;52.568;13.402;2022-11-14T02:10:37;57.70;;;35.27;;
781;SDS011;374;52.568;13.402;2022-11-14T02:13:03;68.80;;;37.63;;
781;SDS011;374;52.568;13.402;2022-11-14T02:15:29;72.27;;;39.87;;
781;SDS011;374;52.568;13.402;2022-11-14T02:17:54;66.03;;;36.67;;
781;SDS011;374;52.568;13.402;2022-11-14T02:20:21;64.23;;;35.40;;
781;SDS011;374;52.568;13.402;2022-11-14T02:22:48;68.93;;;36.20;;
781;SDS011;374;52.568;13.402;2022-11-14T02:25:14;64.80;;;37.20;;
781;SDS011;374;52.568;13.402;2022-11-14T02:27:41;61.40;;;36.70;;
781;SDS011;374;52.568;13.402;2022-11-14T02:30:09;83.03;;;39.23;;
781;SDS011;374;52.568;13.402;2022-11-14T02:32:39;68.23;;;38.90;;
781;SDS011;374;52.568;13.402;2022-11-14T02:35:04;66.30;;;37.70;;
781;SDS011;374;52.568;13.402;2022-11-14T02:37:30;76.73;;;38.80;;
781;SDS011;374;52.568;13.402;2022-11-14T02:39:55;63.97;;;38.47;;
781;SDS011;374;52.568;13.402;2022-11-14T02:42:21;72.23;;;38.37;;
781;SDS011;374;52.568;13.402;2022-11-14T02:44:46;72.87;;;37.87;;
781;SDS011;374;52.568;13.402;2022-11-14T02:47:12;65.43;;;36.37;;
781;SDS011;374;52.568;13.402;2022-11-14T02:49:37;75.43;;;38.80;;
781;SDS011;374;52.568;13.402;2022-11-14T02:52:03;65.50;;;38.90;;
781;SDS011;374;52.568;13.402;2022-11-14T02:54:28;66.07;;;37.10;;
781;SDS011;374;52.568;13.402;2022-11-14T02:56:54;70.00;;;36.73;;
781;SDS011;374;52.568;13.402;2022-11-14T02:59:19;63.33;;;35.90;;
781;SDS011;374;52.568;13.402;2022-11-14T03:01:45;69.30;;;35.80;;
781;SDS011;374;52.568;13.402;2022-11-14T03:04:13;67.27;;;38.30;;
781;SDS011;374;52.568;13.402;2022-11-14T03:06:38;68.10;;;36.37;;
781;SDS011;374;52.568;13.402;2022-11-14T03:09:04;70.07;;;35.87;;
781;SDS011;374;52.568;13.402;2022-11-14T03:11:29;73.37;;;37.07;;
781;SDS011;374;52.568;13.402;2022-11-14T03:13:55;65.57;;;37.57;;
781;SDS011;374;52.568;13.402;2022-11-14T03:16:23;68.30;;;34.63;;
781;SDS011;374;52.568;13.402;2022-11-14T03:18:48;62.30;;;34.77;;
781;SDS011;374;52.568;13.402;2022-11-14T03:21:17;66.70;;;36.53;;
781;SDS011;374;52.568;13.402;2022-11-14T03:23:45;62.67;;;35.10;;
781;SDS011;374;52.568;13.402;2022-11-14T03:26:11;62.80;;;34.87;;
781;SDS011;374;52.568;13.402;2022-11-14T03:28:38;59.33;;;33.53;;
781;SDS011;374;52.568;13.402;2022-11-14T03:31:04;63.97;;;36.00;;
781;SDS011;374;52.568;13.402;2022-11-14T03:33:38;64.10;;;36.13;;
781;SDS011;374;52.568;13.402;2022-11-14T03:36:04;64.33;;;35.87;;
781;SDS011;374;52.568;13.402;2022-11-14T03:38:30;65.77;;;36.70;;
781;SDS011;374;52.568;13.402;2022-11-14T03:40:57;61.07;;;34.53;;
781;SDS011;374;52.568;13.402;2022-11-14T03:43:23;63.07;;;35.27;;
781;SDS011;374;52.568;13.402;2022-11-14T03:45:48;65.17;;;37.40;;
781;SDS011;374;52.568;13.402;2022-11-14T03:48:16;69.43;;;35.73;;
781;SDS011;374;52.568;13.402;2022-11-14T03:50:42;69.13;;;39.07;;
781;SDS011;374;52.568;13.402;2022-11-14T03:53:08;72.97;;;39.10;;
781;SDS011;374;52.568;13.402;2022-11-14T03:55:33;69.57;;;36.00;;
781;SDS011;374;52.568;13.402;2022-11-14T03:57:59;77.60;;;37.47;;
781;SDS011;374;52.568;13.402;2022-11-14T04:00:25;63.70;;;37.20;;
781;SDS011;374;52.568;13.402;2022-11-14T04:02:53;66.00;;;37.10;;
781;SDS011;374;52.568;13.402;2022-11-14T04:05:20;71.17;;;37.53;;
781;SDS011;374;52.568;13.402;2022-11-14T04:07:46;72.13;;;37.57;;
781;SDS011;374;52.568;13.402;2022-11-14T04:10:11;75.67;;;38.33;;
781;SDS011;374;52.568;13.402;2022-11-14T04:12:37;68.37;;;35.30;;
781;SDS011;374;52.568;13.402;2022-11-14T04:15:03;69.87;;;37.67;;
781;SDS011;374;52.568;13.402;2022-11-14T04:17:29;65.13;;;36.80;;
781;SDS011;374;52.568;13.402;2022-11-14T04:19:54;73.50;;;36.43;;
781;SDS011;374;52.568;13.402;2022-11-14T04:22:21;70.67;;;36.47;;
781;SDS011;374;52.568;13.402;2022-11-14T04:24:46;69.70;;;35.10;;
781;SDS011;374;52.568;13.402;2022-11-14T04:27:12;73.63;;;37.00;;
781;SDS011;374;52.568;13.402;2022-11-14T04:29:37;65.73;;;35.37;;
781;SDS011;374;52.568;13.402;2022-11-14T04:32:03;68.87;;;37.03;;
781;SDS011;374;52.568;13.402;2022-11-14T04:34:29;72.70;;;36.57;;
781;SDS011;374;52.568;13.402;2022-11-14T04:36:54;67.80;;;37.37;;
781;SDS011;374;52.568;13.402;2022-11-14T04:39:19;72.07;;;38.83;;
781;SDS011;374;52.568;13.402;2022-11-14T04:41:45;65.70;;;36.27;;
781;SDS011;374;52.568;13.402;2022-11-14T04:44:13;71.97;;;36.30;;
781;SDS011;374;52.568;13.402;2022-11-14T04:46:38;71.93;;;36.60;;
781;SDS011;374;52.568;13.402;2022-11-14T04:49:04;68.33;;;37.33;;
781;SDS011;374;52.568;13.402;2022-11-14T04:51:29;71.37;;;35.87;;
781;SDS011;374;52.568;13.402;2022-11-14T04:53:55;67.47;;;37.80;;
781;SDS011;374;52.568;13.402;2022-11-14T04:56:20;74.07;;;37.47;;
781;SDS011;374;52.568;13.402;2022-11-14T04:58:47;71.93;;;36.70;;
781;SDS011;374;52.568;13.402;2022-11-14T05:01:15;74.47;;;38.60;;
781;SDS011;374;52.568;13.402;2022-11-14T05:03:40;71.57;;;38.83;;
781;SDS011;374;52.568;13.402;2022-11-14T05:06:06;69.43;;;36.80;;
781;SDS011;374;52.568;13.402;2022-11-14T05:08:32;70.63;;;35.90;;
781;SDS011;374;52.568;13.402;2022-11-14T05:10:58;68.30;;;36.57;;
781;SDS011;374;52.568;13.402;2022-11-14T05:13:23;76.53;;;36.33;;
781;SDS011;374;52.568;13.402;2022-11-14T05:15:49;72.00;;;38.63;;
781;SDS011;374;52.568;13.402;2022-11-14T05:18:14;80.33;;;37.63;;
781;SDS011;374;52.568;13.402;2022-11-14T05:20:40;68.60;;;37.77;;
781;SDS011;374;52.568;13.402;2022-11-14T05:23:05;73.60;;;38.73;;
781;SDS011;374;52.568;13.402;2022-11-14T05:25:31;66.90;;;33.80;;
781;SDS011;374;52.568;13.402;2022-11-14T05:28:00;79.17;;;37.13;;
781;SDS011;374;52.568;13.402;2022-11-14T05:30:25;71.90;;;36.37;;
781;SDS011;374;52.568;13.402;2022-11-14T05:32:51;70.47;;;37.40;;
781;SDS011;374;52.568;13.402;2022-11-14T05:35:16;73.03;;;37.50;;
781;SDS011;374;52.568;13.402;2022-11-14T05:37:42;74.13;;;38.63;;
781;SDS011;374;52.568;13.402;2022-11-14T05:40:07;65.50;;;34.30;;
781;SDS011;374;52.568;13.402;2022-11-14T05:42:33;68.73;;;37.03;;
781;SDS011;374;52.568;13.402;2022-11-14T05:44:59;62.57;;;34.53;;
781;SDS011;374;52.568;13.402;2022-11-14T05:47:24;64.97;;;38.60;;
781;SDS011;374;52.568;13.402;2022-11-14T05:49:50;65.40;;;35.80;;
781;SDS011;374;52.568;13.402;2022-11-14T05:52:15;72.73;;;38.07;;
781;SDS011;374;52.568;13.402;2022-11-14T05:54:41;69.50;;;37.17;;
781;SDS011;374;52.568;13.402;2022-11-14T05:57:06;67.70;;;35.53;;
781;SDS011;374;52.568;13.402;2022-11-14T05:59:32;70.87;;;38.30;;
781;SDS011;374;52.568;13.402;2022-11-14T06:02:00;66.80;;;34.93;;
781;SDS011;374;52.568;13.402;2022-11-14T06:04:26;78.30;;;37.93;;
781;SDS011;374;52.568;13.402;2022-11-14T06:06:51;80.67;;;39.70;;
781;SDS011;374;52.568;13.402;2022-11-14T06:09:17;73.30;;;36.73;;
781;SDS011;374;52.568;13.402;2022-11-14T06:11:42;76.00;;;38.63;;
781;SDS011;374;52.568;13.402;2022-11-14T06:14:08;78.47;;;39.07;;
781;SDS011;374;52.568;13.402;2022-11-14T06:16:34;71.77;;;36.27;;
781;SDS011;374;52.568;13.402;2022-11-14T06:19:00;68.73;;;36.10;;
781;SDS011;374;52.568;13.402;2022-11-14T06:21:25;73.83;;;37.23;;
781;SDS011;374;52.568;13.402;2022-11-14T06:23:51;73.87;;;37.97;;
781;SDS011;374;52.568;13.402;2022-11-14T06:26:23;77.67;;;38.87;;
781;SDS011;374;52.568;13.402;2022-11-14T06:28:51;76.67;;;38.33;;
781;SDS011;374;52.568;13.402;2022-11-14T06:31:21;72.80;;;37.43;;
781;SDS011;374;52.568;13.402;2022-11-14T06:34:01;80.20;;;38.70;;
781;SDS011;374;52.568;13.402;2022-11-14T06:36:29;72.13;;;37.43;;
781;SDS011;374;52.568;13.402;2022-11-14T06:38:54;71.73;;;36.57;;
781;SDS011;374;52.568;13.402;2022-11-14T06:49:51;79.23;;;39.07;;
781;SDS011;374;52.568;13.402;2022-11-14T06:52:17;71.30;;;38.17;;
781;SDS011;374;52.568;13.402;2022-11-14T06:54:42;83.90;;;38.40;;
781;SDS011;374;52.568;13.402;2022-11-14T06:57:08;79.77;;;38.17;;
781;SDS011;374;52.568;13.402;2022-11-14T06:59:33;72.90;;;38.57;;
781;SDS011;374;52.568;13.402;2022-11-14T07:01:59;67.37;;;34.67;;
781;SDS011;374;52.568;13.402;2022-11-14T07:04:24;75.77;;;36.17;;
781;SDS011;374;52.568;13.402;2022-11-14T07:06:50;76.33;;;36.20;;
781;SDS011;374;52.568;13.402;2022-11-14T07:09:15;67.80;;;36.73;;
781;SDS011;374;52.568;13.402;2022-11-14T07:11:41;73.50;;;36.60;;
781;SDS011;374;52.568;13.402;2022-11-14T07:14:09;74.00;;;37.77;;
781;SDS011;374;52.568;13.402;2022-11-14T07:16:34;69.60;;;35.80;;
781;SDS011;374;52.568;13.402;2022-11-14T07:19:01;70.93;;;38.40;;
781;SDS011;374;52.568;13.402;2022-11-14T07:21:32;72.50;;;35.40;;
781;SDS011;374;52.568;13.402;2022-11-14T07:23:58;68.13;;;36.37;;
781;SDS011;374;52.568;13.402;2022-11-14T07:26:23;73.73;;;37.17;;
781;SDS011;374;52.568;13.402;2022-11-14T07:28:49;72.27;;;37.10;;
781;SDS011;374;52.568;13.402;2022-11-14T07:31:15;66.83;;;36.57;;
781;SDS011;374;52.568;13.402;2022-11-14T07:33:42;73.73;;;37.13;;
781;SDS011;374;52.568;13.402;2022-11-14T07:36:09;75.80;;;37.83;;
781;SDS011;374;52.568;13.402;2022-11-14T07:38:35;73.07;;;37.00;;
781;SDS011;374;52.568;13.402;2022-11-14T07:41:06;72.90;;;35.60;;
781;SDS011;374;52.568;13.402;2022-11-14T07:43:36;65.27;;;35.80;;
781;SDS011;374;52.568;13.402;2022-11-14T07:46:03;65.43;;;36.37;;
781;SDS011;374;52.568;13.402;2022-11-14T07:48:34;75.67;;;38.23;;
781;SDS011;374;52.568;13.402;2022-11-14T07:51:00;65.47;;;33.53;;
781;SDS011;374;52.568;13.402;2022-11-14T07:53:27;74.07;;;37.47;;
781;SDS011;374;52.568;13.402;2022-11-14T07:55:56;71.33;;;36.33;;
781;SDS011;374;52.568;13.402;2022-11-14T07:58:25;74.57;;;36.43;;
781;SDS011;374;52.568;13.402;2022-11-14T08:00:51;74.17;;;37.33;;
781;SDS011;374;52.568;13.402;2022-11-14T08:03:16;66.20;;;35.73;;
781;SDS011;374;52.568;13.402;2022-11-14T08:05:42;70.30;;;36.37;;
781;SDS011;374;52.568;13.402;2022-11-14T08:08:08;63.30;;;34.53;;
781;SDS011;374;52.568;13.402;2022-11-14T08:10:34;70.50;;;35.90;;
781;SDS011;374;52.568;13.402;2022-11-14T08:13:01;74.43;;;36.53;;
781;SDS011;374;52.568;13.402;2022-11-14T08:15:28;75.10;;;36.63;;
781;SDS011;374;52.568;13.402;2022-11-14T08:17:57;77.87;;;36.47;;
781;SDS011;374;52.568;13.402;2022-11-14T08:20:24;63.93;;;34.53;;
781;SDS011;374;52.568;13.402;2022-11-14T08:22:51;73.33;;;35.03;;
781;SDS011;374;52.568;13.402;2022-11-14T08:25:17;73.73;;;36.00;;
781;SDS011;374;52.568;13.402;2022-11-14T08:27:42;81.40;;;35.47;;
781;SDS011;374;52.568;13.402;2022-11-14T08:30:08;63.50;;;33.40;;
781;SDS011;374;52.568;13.402;2022-11-14T08:32:34;67.23;;;34.33;;
781;SDS011;374;52.568;13.402;2022-11-14T08:34:59;61.50;;;35.00;;
781;SDS011;374;52.568;13.402;2022-11-14T08:37:25;64.17;;;36.50;;
781;SDS011;374;52.568;13.402;2022-11-14T08:39:53;62.80;;;32.23;;
781;SDS011;374;52.568;13.402;2022-11-14T08:42:19;63.97;;;34.13;;
781;SDS011;374;52.568;13.402;2022-11-14T08:44:44;68.03;;;35.60;;
781;SDS011;374;52.568;13.402;2022-11-14T08:47:10;71.33;;;34.73;;
781;SDS011;374;52.568;13.402;2022-11-14T08:49:35;60.00;;;31.50;;
781;SDS011;374;52.568;13.402;2022-11-14T08:52:03;73.87;;;33.67;;
781;SDS011;374;52.568;13.402;2022-11-14T08:54:28;62.47;;;33.57;;
781;SDS011;374;52.568;13.402;2022-11-14T08:56:54;66.27;;;33.20;;
781;SDS011;374;52.568;13.402;2022-11-14T08:59:19;62.93;;;33.90;;
781;SDS011;374;52.568;13.402;2022-11-14T09:01:45;69.73;;;32.50;;
781;SDS011;374;52.568;13.402;2022-11-14T09:04:10;65.77;;;33.00;;
781;SDS011;374;52.568;13.402;2022-11-14T09:06:36;59.23;;;33.30;;
781;SDS011;374;52.568;13.402;2022-11-14T09:09:01;59.30;;;32.20;;
781;SDS011;374;52.568;13.402;2022-11-14T09:11:27;65.10;;;32.93;;
781;SDS011;374;52.568;13.402;2022-11-14T09:13:52;64.70;;;33.37;;
781;SDS011;374;52.568;13.402;2022-11-14T09:16:18;61.50;;;34.47;;
781;SDS011;374;52.568;13.402;2022-11-14T09:18:43;63.20;;;31.87;;
781;SDS011;374;52.568;13.402;2022-11-14T09:21:09;61.70;;;31.50;;
781;SDS011;374;52.568;13.402;2022-11-14T09:23:35;69.10;;;34.80;;
781;SDS011;374;52.568;13.402;2022-11-14T09:26:04;55.17;;;33.70;;
781;SDS011;374;52.568;13.402;2022-11-14T09:28:35;71.50;;;33.70;;
781;SDS011;374;52.568;13.402;2022-11-14T09:31:02;52.10;;;29.07;;
781;SDS011;374;52.568;13.402;2022-11-14T09:33:32;54.13;;;30.67;;
781;SDS011;374;52.568;13.402;2022-11-14T09:35:59;62.00;;;31.37;;
781;SDS011;374;52.568;13.402;2022-11-14T09:38:28;52.43;;;30.20;;
781;SDS011;374;52.568;13.402;2022-11-14T09:40:58;57.43;;;31.93;;
781;SDS011;374;52.568;13.402;2022-11-14T09:43:33;55.57;;;31.10;;
781;SDS011;374;52.568;13.402;2022-11-14T09:46:23;56.80;;;31.37;;
781;SDS011;374;52.568;13.402;2022-11-14T09:48:51;57.30;;;31.87;;
781;SDS011;374;52.568;13.402;2022-11-14T09:51:24;59.43;;;30.63;;
781;SDS011;374;52.568;13.402;2022-11-14T09:54:15;51.20;;;29.37;;
781;SDS011;374;52.568;13.402;2022-11-14T09:56:48;52.93;;;29.20;;
781;SDS011;374;52.568;13.402;2022-11-14T09:59:14;59.27;;;32.00;;
781;SDS011;374;52.568;13.402;2022-11-14T10:01:47;55.67;;;30.70;;
781;SDS011;374;52.568;13.402;2022-11-14T10:04:51;52.40;;;31.67;;
781;SDS011;374;52.568;13.402;2022-11-14T10:10:46;53.43;;;29.47;;
781;SDS011;374;52.568;13.402;2022-11-14T10:13:29;58.20;;;30.10;;
781;SDS011;374;52.568;13.402;2022-11-14T10:22:10;50.67;;;29.87;;
781;SDS011;374;52.568;13.402;2022-11-14T10:30:34;53.40;;;30.13;;
781;SDS011;374;52.568;13.402;2022-11-14T10:36:24;50.23;;;28.10;;
781;SDS011;374;52.568;13.402;2022-11-14T10:39:22;50.07;;;27.57;;
781;SDS011;374;52.568;13.402;2022-11-14T10:41:55;48.00;;;29.87;;
781;SDS011;374;52.568;13.402;2022-11-14T10:44:26;49.67;;;29.50;;
781;SDS011;374;52.568;13.402;2022-11-14T10:46:57;53.10;;;29.10;;
781;SDS011;374;52.568;13.402;2022-11-14T10:49:30;54.37;;;29.27;;
781;SDS011;374;52.568;13.402;2022-11-14T10:52:00;51.00;;;29.27;;
781;SDS011;374;52.568;13.402;2022-11-14T10:54:35;54.77;;;30.27;;
781;SDS011;374;52.568;13.402;2022-11-14T10:57:18;58.03;;;31.27;;
781;SDS011;374;52.568;13.402;2022-11-14T10:59:47;49.57;;;27.63;;
781;SDS011;374;52.568;13.402;2022-11-14T11:02:13;51.50;;;29.90;;
781;SDS011;374;52.568;13.402;2022-11-14T11:04:40;47.73;;;27.83;;
781;SDS011;374;52.568;13.402;2022-11-14T11:10:21;44.40;;;27.50;;
781;SDS011;374;52.568;13.402;2022-11-14T11:13:08;47.47;;;29.13;;
781;SDS011;374;52.568;13.402;2022-11-14T11:15:38;40.87;;;26.07;;
781;SDS011;374;52.568;13.402;2022-11-14T11:21:13;54.50;;;26.87;;
781;SDS011;374;52.568;13.402;2022-11-14T11:23:53;49.40;;;27.73;;
781;SDS011;374;52.568;13.402;2022-11-14T11:26:27;49.03;;;28.97;;
781;SDS011;374;52.568;13.402;2022-11-14T11:29:05;52.40;;;27.73;;
781;SDS011;374;52.568;13.402;2022-11-14T11:34:47;45.50;;;26.97;;
781;SDS011;374;52.568;13.402;2022-11-14T11:37:17;44.67;;;27.90;;
781;SDS011;374;52.568;13.402;2022-11-14T11:39:55;45.57;;;27.50;;
781;SDS011;374;52.568;13.402;2022-11-14T11:42:45;39.37;;;24.90;;
781;SDS011;374;52.568;13.402;2022-11-14T11:45:28;45.30;;;26.17;;
781;SDS011;374;52.568;13.402;2022-11-14T11:47:58;46.67;;;27.37;;
781;SDS011;374;52.568;13.402;2022-11-14T11:50:35;46.00;;;25.90;;
781;SDS011;374;52.568;13.402;2022-11-14T11:55:49;44.07;;;27.67;;
781;SDS011;374;52.568;13.402;2022-11-14T11:58:20;38.20;;;26.43;;
781;SDS011;374;52.568;13.402;2022-11-14T12:00:51;42.17;;;25.43;;
781;SDS011;374;52.568;13.402;2022-11-14T12:03:20;44.63;;;24.40;;
781;SDS011;374;52.568;13.402;2022-11-14T12:11:16;38.13;;;25.23;;
781;SDS011;374;52.568;13.402;2022-11-14T12:20:08;42.57;;;27.10;;
781;SDS011;374;52.568;13.402;2022-11-14T12:25:58;46.30;;;27.10;;
781;SDS011;374;52.568;13.402;2022-11-14T12:35:15;34.63;;;24.57;;
781;SDS011;374;52.568;13.402;2022-11-14T12:41:33;46.50;;;25.33;;
781;SDS011;374;52.568;13.402;2022-11-14T12:50:49;43.77;;;25.23;;
781;SDS011;374;52.568;13.402;2022-11-14T12:54:08;38.43;;;23.90;;
781;SDS011;374;52.568;13.402;2022-11-14T13:06:59;41.10;;;23.70;;
781;SDS011;374;52.568;13.402;2022-11-14T13:15:28;35.40;;;22.50;;
781;SDS011;374;52.568;13.402;2022-11-14T13:18:39;33.10;;;22.93;;
781;SDS011;374;52.568;13.402;2022-11-14T13:21:35;32.60;;;22.70;;
781;SDS011;374;52.568;13.402;2022-11-14T13:24:11;32.03;;;22.53;;
781;SDS011;374;52.568;13.402;2022-11-14T13:26:40;32.20;;;21.80;;
781;SDS011;374;52.568;13.402;2022-11-14T13:29:45;33.77;;;24.00;;
781;SDS011;374;52.568;13.402;2022-11-14T13:32:12;33.30;;;21.90;;
781;SDS011;374;52.568;13.402;2022-11-14T13:43:15;33.13;;;22.43;;
781;SDS011;374;52.568;13.402;2022-11-14T13:46:20;30.83;;;21.57;;
781;SDS011;374;52.568;13.402;2022-11-14T13:52:11;33.33;;;20.63;;
781;SDS011;374;52.568;13.402;2022-11-14T13:54:43;32.33;;;20.47;;
781;SDS011;374;52.568;13.402;2022-11-14T13:57:18;29.70;;;21.00;;
781;SDS011;374;52.568;13.402;2022-11-14T14:00:00;29.93;;;21.43;;
781;SDS011;374;52.568;13.402;2022-11-14T14:08:19;29.37;;;21.90;;
781;SDS011;374;52.568;13.402;2022-11-14T14:14:40;29.93;;;21.40;;
781;SDS011;374;52.568;13.402;2022-11-14T14:17:12;25.67;;;18.53;;
781;SDS011;374;52.568;13.402;2022-11-14T14:19:47;34.23;;;20.43;;
781;SDS011;374;52.568;13.402;2022-11-14T14:28:28;30.97;;;20.93;;
781;SDS011;374;52.568;13.402;2022-11-14T14:31:17;23.10;;;19.00;;
781;SDS011;374;52.568;13.402;2022-11-14T14:33:47;27.67;;;18.50;;
781;SDS011;374;52.568;13.402;2022-11-14T14:38:47;28.47;;;19.70;;
781;SDS011;374;52.568;13.402;2022-11-14T14:41:15;39.07;;;20.90;;
781;SDS011;374;52.568;13.402;2022-11-14T14:43:43;27.40;;;20.43;;
781;SDS011;374;52.568;13.402;2022-11-14T14:46:26;27.50;;;20.70;;
781;SDS011;374;52.568;13.402;2022-11-14T14:48:53;26.23;;;19.50;;
781;SDS011;374;52.568;13.402;2022-11-14T14:51:28;25.90;;;19.40;;
781;SDS011;374;52.568;13.402;2022-11-14T14:53:55;28.60;;;20.20;;
781;SDS011;374;52.568;13.402;2022-11-14T14:56:22;27.23;;;19.50;;
781;SDS011;374;52.568;13.402;2022-11-14T14:58:49;27.40;;;19.53;;
781;SDS011;374;52.568;13.402;2022-11-14T15:01:16;31.77;;;21.17;;
781;SDS011;374;52.568;13.402;2022-11-14T15:03:48;27.07;;;20.30;;
781;SDS011;374;52.568;13.402;2022-11-14T15:06:22;25.43;;;19.97;;
781;SDS011;374;52.568;13.402;2022-11-14T15:08:59;29.90;;;21.60;;
781;SDS011;374;52.568;13.402;2022-11-14T15:11:32;28.50;;;21.37;;
781;SDS011;374;52.568;13.402;2022-11-14T15:13:59;34.47;;;22.97;;
781;SDS011;374;52.568;13.402;2022-11-14T15:16:26;27.63;;;21.93;;
781;SDS011;374;52.568;13.402;2022-11-14T15:18:53;34.43;;;23.93;;
781;SDS011;374;52.568;13.402;2022-11-14T15:24:10;34.03;;;23.73;;
781;SDS011;374;52.568;13.402;2022-11-14T15:26:45;31.57;;;23.87;;
781;SDS011;374;52.568;13.402;2022-11-14T15:31:46;34.23;;;24.40;;
781;SDS011;374;52.568;13.402;2022-11-14T15:34:29;37.27;;;24.10;;
781;SDS011;374;52.568;13.402;2022-11-14T15:39:40;40.73;;;24.77;;
781;SDS011;374;52.568;13.402;2022-11-14T15:44:51;37.20;;;25.23;;
781;SDS011;374;52.568;13.402;2022-11-14T15:49:56;39.20;;;26.33;;
781;SDS011;374;52.568;13.402;2022-11-14T15:52:24;37.33;;;24.53;;
781;SDS011;374;52.568;13.402;2022-11-14T15:54:51;30.97;;;23.37;;
781;SDS011;374;52.568;13.402;2022-11-14T15:57:16;34.23;;;24.07;;
781;SDS011;374;52.568;13.402;2022-11-14T15:59:42;34.53;;;24.10;;
781;SDS011;374;52.568;13.402;2022-11-14T16:02:25;35.10;;;23.93;;
781;SDS011;374;52.568;13.402;2022-11-14T16:04:54;33.97;;;23.27;;
781;SDS011;374;52.568;13.402;2022-11-14T16:07:23;35.70;;;24.80;;
781;SDS011;374;52.568;13.402;2022-11-14T16:09:48;38.20;;;24.30;;
781;SDS011;374;52.568;13.402;2022-11-14T16:12:14;34.07;;;24.13;;
781;SDS011;374;52.568;13.402;2022-11-14T16:14:40;34.03;;;24.17;;
781;SDS011;374;52.568;13.402;2022-11-14T16:17:09;33.87;;;24.30;;
781;SDS011;374;52.568;13.402;2022-11-14T16:19:37;34.43;;;24.47;;
781;SDS011;374;52.568;13.402;2022-11-14T16:22:03;31.00;;;24.40;;
781;SDS011;374;52.568;13.402;2022-11-14T16:24:29;31.73;;;24.60;;
781;SDS011;374;52.568;13.402;2022-11-14T16:26:55;36.63;;;24.20;;
781;SDS011;374;52.568;13.402;2022-11-14T16:29:21;32.53;;;24.90;;
781;SDS011;374;52.568;13.402;2022-11-14T16:31:48;31.97;;;25.43;;
781;SDS011;374;52.568;13.402;2022-11-14T16:34:19;37.27;;;24.93;;
781;SDS011;374;52.568;13.402;2022-11-14T16:36:46;37.23;;;25.77;;
781;SDS011;374;52.568;13.402;2022-11-14T16:39:12;33.10;;;24.77;;
781;SDS011;374;52.568;13.402;2022-11-14T16:41:38;31.50;;;23.67;;
781;SDS011;374;52.568;13.402;2022-11-14T16:44:04;32.07;;;24.60;;
781;SDS011;374;52.568;13.402;2022-11-14T16:46:30;34.17;;;25.73;;
781;SDS011;374;52.568;13.402;2022-11-14T16:48:56;29.87;;;23.13;;
781;SDS011;374;52.568;13.402;2022-11-14T16:51:21;31.30;;;23.60;;
781;SDS011;374;52.568;13.402;2022-11-14T16:53:47;34.83;;;25.20;;
781;SDS011;374;52.568;13.402;2022-11-14T16:56:12;35.87;;;26.13;;
781;SDS011;374;52.568;13.402;2022-11-14T16:58:38;30.83;;;25.03;;
781;SDS011;374;52.568;13.402;2022-11-14T17:01:05;31.80;;;24.63;;
781;SDS011;374;52.568;13.402;2022-11-14T17:03:32;34.33;;;24.50;;
781;SDS011;374;52.568;13.402;2022-11-14T17:05:57;33.70;;;24.23;;
781;SDS011;374;52.568;13.402;2022-11-14T17:08:23;33.17;;;27.30;;
781;SDS011;374;52.568;13.402;2022-11-14T17:10:49;29.87;;;24.00;;
781;SDS011;374;52.568;13.402;2022-11-14T17:13:14;34.97;;;25.30;;
781;SDS011;374;52.568;13.402;2022-11-14T17:15:43;32.73;;;24.50;;
781;SDS011;374;52.568;13.402;2022-11-14T17:18:08;32.83;;;24.70;;
781;SDS011;374;52.568;13.402;2022-11-14T17:20:37;33.20;;;25.10;;
781;SDS011;374;52.568;13.402;2022-11-14T17:23:03;34.73;;;25.33;;